sensor_id;sensor_type;location;lat;lon;timestamp;temperature;humidity
14031;DHT22;7090;49.436;8.490;2023-09-07T00:01:56;17.10;99.90
14031;DHT22;7090;49.436;8.490;2023-09-07T00:04:22;17.10;99.90
14031;DHT22;7090;49.436;8.490;2023-09-07T00:06:49;17.10;99.90
14031;DHT22;7090;49.436;8.490;2023-09-07T00:09:15;17.20;99.90
14031;DHT22;7090;49.436;8.490;2023-09-07T00:11:43;17.20;99.90
14031;DHT22;7090;49.436;8.490;2023-09-07T00:14:09;17.20;99.90
14031;DHT22;7090;49.436;8.490;2023-09-07T00:16:35;17.20;99.90
14031;DHT22;7090;49.436;8.490;2023-09-07T00:19:01;17.20;99.90
14031;DHT22;7090;49.436;8.490;2023-09-07T00:21:28;17.00;99.90
14031;DHT22;7090;49.436;8.490;2023-09-07T00:23:53;17.00;99.90
14031;DHT22;7090;49.436;8.490;2023-09-07T00:26:20;17.00;99.90
14031;DHT22;7090;49.436;8.490;2023-09-07T00:28:46;16.90;99.90
14031;DHT22;7090;49.436;8.490;2023-09-07T00:31:11;16.80;99.90
14031;DHT22;7090;49.436;8.490;2023-09-07T00:33:37;16.90;99.90
14031;DHT22;7090;49.436;8.490;2023-09-07T00:36:03;16.90;99.90
14031;DHT22;7090;49.436;8.490;2023-09-07T00:38:29;16.90;99.90
14031;DHT22;7090;49.436;8.490;2023-09-07T00:40:54;16.90;99.90
14031;DHT22;7090;49.436;8.490;2023-09-07T00:43:20;16.80;99.90
14031;DHT22;7090;49.436;8.490;2023-09-07T00:45:45;16.70;99.90
14031;DHT22;7090;49.436;8.490;2023-09-07T00:48:15;16.70;99.90
14031;DHT22;7090;49.436;8.490;2023-09-07T00:50:44;16.60;99.90
14031;DHT22;7090;49.436;8.490;2023-09-07T00:53:14;16.60;99.90
14031;DHT22;7090;49.436;8.490;2023-09-07T00:55:39;16.60;99.90
14031;DHT22;7090;49.436;8.490;2023-09-07T00:58:05;16.50;99.90
14031;DHT22;7090;49.436;8.490;2023-09-07T01:00:32;16.40;99.90
14031;DHT22;7090;49.436;8.490;2023-09-07T01:02:59;16.40;99.90
14031;DHT22;7090;49.436;8.490;2023-09-07T01:05:34;16.40;99.90
14031;DHT22;7090;49.436;8.490;2023-09-07T01:08:18;16.40;99.90
14031;DHT22;7090;49.436;8.490;2023-09-07T01:10:45;16.30;99.90
14031;DHT22;7090;49.436;8.490;2023-09-07T01:13:10;16.20;99.90
14031;DHT22;7090;49.436;8.490;2023-09-07T01:15:37;16.20;99.90
14031;DHT22;7090;49.436;8.490;2023-09-07T01:18:03;16.30;99.90
14031;DHT22;7090;49.436;8.490;2023-09-07T01:20:30;16.40;99.90
14031;DHT22;7090;49.436;8.490;2023-09-07T01:22:57;16.30;99.90
14031;DHT22;7090;49.436;8.490;2023-09-07T01:25:23;16.20;99.90
14031;DHT22;7090;49.436;8.490;2023-09-07T01:27:49;16.30;99.90
14031;DHT22;7090;49.436;8.490;2023-09-07T01:30:16;16.10;99.90
14031;DHT22;7090;49.436;8.490;2023-09-07T01:32:42;16.10;99.90
14031;DHT22;7090;49.436;8.490;2023-09-07T01:35:10;16.10;99.90
14031;DHT22;7090;49.436;8.490;2023-09-07T01:37:36;16.00;99.90
14031;DHT22;7090;49.436;8.490;2023-09-07T01:40:01;16.00;99.90
14031;DHT22;7090;49.436;8.490;2023-09-07T01:42:30;16.00;99.90
14031;DHT22;7090;49.436;8.490;2023-09-07T01:44:55;16.00;99.90
14031;DHT22;7090;49.436;8.490;2023-09-07T01:47:21;16.10;99.90
14031;DHT22;7090;49.436;8.490;2023-09-07T01:49:46;16.00;99.90
14031;DHT22;7090;49.436;8.490;2023-09-07T01:52:12;16.10;99.90
14031;DHT22;7090;49.436;8.490;2023-09-07T01:54:37;16.00;99.90
14031;DHT22;7090;49.436;8.490;2023-09-07T01:57:03;16.00;99.90
14031;DHT22;7090;49.436;8.490;2023-09-07T01:59:28;16.00;99.90
14031;DHT22;7090;49.436;8.490;2023-09-07T02:01:54;16.00;99.90
14031;DHT22;7090;49.436;8.490;2023-09-07T02:04:19;16.10;99.90
14031;DHT22;7090;49.436;8.490;2023-09-07T02:06:45;16.10;99.90
14031;DHT22;7090;49.436;8.490;2023-09-07T02:09:10;16.20;99.90
14031;DHT22;7090;49.436;8.490;2023-09-07T02:11:36;16.10;99.90
14031;DHT22;7090;49.436;8.490;2023-09-07T02:14:02;16.20;99.90
14031;DHT22;7090;49.436;8.490;2023-09-07T02:16:27;16.10;99.90
14031;DHT22;7090;49.436;8.490;2023-09-07T02:19:02;16.00;99.90
14031;DHT22;7090;49.436;8.490;2023-09-07T02:21:29;16.00;99.90
14031;DHT22;7090;49.436;8.490;2023-09-07T02:23:54;15.90;99.90
14031;DHT22;7090;49.436;8.490;2023-09-07T02:26:20;15.90;99.90
14031;DHT22;7090;49.436;8.490;2023-09-07T02:28:45;15.80;99.90
14031;DHT22;7090;49.436;8.490;2023-09-07T02:31:11;15.70;99.90
14031;DHT22;7090;49.436;8.490;2023-09-07T02:33:36;15.70;99.90
14031;DHT22;7090;49.436;8.490;2023-09-07T02:36:02;15.70;99.90
14031;DHT22;7090;49.436;8.490;2023-09-07T02:38:28;15.70;99.90
14031;DHT22;7090;49.436;8.490;2023-09-07T02:40:55;15.60;99.90
14031;DHT22;7090;49.436;8.490;2023-09-07T02:43:21;15.50;99.90
14031;DHT22;7090;49.436;8.490;2023-09-07T02:45:49;15.60;99.90
14031;DHT22;7090;49.436;8.490;2023-09-07T02:48:15;15.60;99.90
14031;DHT22;7090;49.436;8.490;2023-09-07T02:50:41;15.70;99.90
14031;DHT22;7090;49.436;8.490;2023-09-07T02:53:07;15.80;99.90
14031;DHT22;7090;49.436;8.490;2023-09-07T02:55:33;15.90;99.90
14031;DHT22;7090;49.436;8.490;2023-09-07T02:58:02;15.80;99.90
14031;DHT22;7090;49.436;8.490;2023-09-07T03:00:28;15.60;99.90
14031;DHT22;7090;49.436;8.490;2023-09-07T03:02:53;15.50;99.90
14031;DHT22;7090;49.436;8.490;2023-09-07T03:05:19;15.40;99.90
14031;DHT22;7090;49.436;8.490;2023-09-07T03:07:46;15.50;99.90
14031;DHT22;7090;49.436;8.490;2023-09-07T03:10:12;15.50;99.90
14031;DHT22;7090;49.436;8.490;2023-09-07T03:12:38;15.50;99.90
14031;DHT22;7090;49.436;8.490;2023-09-07T03:15:04;15.50;99.90
14031;DHT22;7090;49.436;8.490;2023-09-07T03:17:30;15.50;99.90
14031;DHT22;7090;49.436;8.490;2023-09-07T03:19:56;15.40;99.90
14031;DHT22;7090;49.436;8.490;2023-09-07T03:22:25;15.40;99.90
14031;DHT22;7090;49.436;8.490;2023-09-07T03:24:51;15.40;99.90
14031;DHT22;7090;49.436;8.490;2023-09-07T03:27:17;15.40;99.90
14031;DHT22;7090;49.436;8.490;2023-09-07T03:29:44;15.30;99.90
14031;DHT22;7090;49.436;8.490;2023-09-07T03:32:10;15.30;99.90
14031;DHT22;7090;49.436;8.490;2023-09-07T03:34:36;15.30;99.90
14031;DHT22;7090;49.436;8.490;2023-09-07T03:37:01;15.30;99.90
14031;DHT22;7090;49.436;8.490;2023-09-07T03:39:27;15.30;99.90
14031;DHT22;7090;49.436;8.490;2023-09-07T03:41:53;15.30;99.90
14031;DHT22;7090;49.436;8.490;2023-09-07T03:44:19;15.30;99.90
14031;DHT22;7090;49.436;8.490;2023-09-07T03:46:44;15.30;99.90
14031;DHT22;7090;49.436;8.490;2023-09-07T03:49:10;15.30;99.90
14031;DHT22;7090;49.436;8.490;2023-09-07T03:51:36;15.30;99.90
14031;DHT22;7090;49.436;8.490;2023-09-07T03:54:01;15.10;99.90
14031;DHT22;7090;49.436;8.490;2023-09-07T03:56:27;15.10;99.90
14031;DHT22;7090;49.436;8.490;2023-09-07T03:58:52;15.10;99.90
14031;DHT22;7090;49.436;8.490;2023-09-07T04:01:18;15.10;99.90
14031;DHT22;7090;49.436;8.490;2023-09-07T04:03:43;15.10;99.90
14031;DHT22;7090;49.436;8.490;2023-09-07T04:06:09;15.10;99.90
14031;DHT22;7090;49.436;8.490;2023-09-07T04:08:35;15.10;99.90
14031;DHT22;7090;49.436;8.490;2023-09-07T04:11:07;15.20;99.90
14031;DHT22;7090;49.436;8.490;2023-09-07T04:13:32;15.20;99.90
14031;DHT22;7090;49.436;8.490;2023-09-07T04:15:58;15.20;99.90
14031;DHT22;7090;49.436;8.490;2023-09-07T04:18:24;15.10;99.90
14031;DHT22;7090;49.436;8.490;2023-09-07T04:20:49;15.10;99.90
14031;DHT22;7090;49.436;8.490;2023-09-07T04:23:15;15.10;99.90
14031;DHT22;7090;49.436;8.490;2023-09-07T04:25:41;15.10;99.90
14031;DHT22;7090;49.436;8.490;2023-09-07T04:28:07;15.00;99.90
14031;DHT22;7090;49.436;8.490;2023-09-07T04:30:36;15.00;99.90
14031;DHT22;7090;49.436;8.490;2023-09-07T04:33:02;14.90;99.90
14031;DHT22;7090;49.436;8.490;2023-09-07T04:35:28;14.80;99.90
14031;DHT22;7090;49.436;8.490;2023-09-07T04:37:55;14.70;99.90
14031;DHT22;7090;49.436;8.490;2023-09-07T04:40:22;14.70;99.90
14031;DHT22;7090;49.436;8.490;2023-09-07T04:42:47;14.80;99.90
14031;DHT22;7090;49.436;8.490;2023-09-07T04:45:13;14.70;99.90
14031;DHT22;7090;49.436;8.490;2023-09-07T04:47:38;14.70;99.90
14031;DHT22;7090;49.436;8.490;2023-09-07T04:50:05;14.70;99.90
14031;DHT22;7090;49.436;8.490;2023-09-07T04:52:31;14.70;99.90
14031;DHT22;7090;49.436;8.490;2023-09-07T04:54:57;14.60;99.90
14031;DHT22;7090;49.436;8.490;2023-09-07T04:57:22;14.60;99.90
14031;DHT22;7090;49.436;8.490;2023-09-07T04:59:48;14.70;99.90
14031;DHT22;7090;49.436;8.490;2023-09-07T05:02:14;14.80;99.90
14031;DHT22;7090;49.436;8.490;2023-09-07T05:04:39;14.70;99.90
14031;DHT22;7090;49.436;8.490;2023-09-07T05:07:05;14.80;99.90
14031;DHT22;7090;49.436;8.490;2023-09-07T05:09:30;14.80;99.90
14031;DHT22;7090;49.436;8.490;2023-09-07T05:11:56;14.90;99.90
14031;DHT22;7090;49.436;8.490;2023-09-07T05:14:23;15.10;99.90
14031;DHT22;7090;49.436;8.490;2023-09-07T05:16:49;15.40;99.90
14031;DHT22;7090;49.436;8.490;2023-09-07T05:19:15;15.90;99.90
14031;DHT22;7090;49.436;8.490;2023-09-07T05:21:41;16.20;99.90
14031;DHT22;7090;49.436;8.490;2023-09-07T05:24:06;16.60;99.90
14031;DHT22;7090;49.436;8.490;2023-09-07T05:26:32;16.90;99.90
14031;DHT22;7090;49.436;8.490;2023-09-07T05:28:57;17.10;99.90
14031;DHT22;7090;49.436;8.490;2023-09-07T05:31:23;17.20;99.90
14031;DHT22;7090;49.436;8.490;2023-09-07T05:33:49;17.50;99.90
14031;DHT22;7090;49.436;8.490;2023-09-07T05:36:14;17.70;99.90
14031;DHT22;7090;49.436;8.490;2023-09-07T05:38:40;17.90;99.90
14031;DHT22;7090;49.436;8.490;2023-09-07T05:41:06;18.30;99.90
14031;DHT22;7090;49.436;8.490;2023-09-07T05:43:32;18.80;99.90
14031;DHT22;7090;49.436;8.490;2023-09-07T05:45:58;19.10;99.90
14031;DHT22;7090;49.436;8.490;2023-09-07T05:48:23;19.20;99.90
14031;DHT22;7090;49.436;8.490;2023-09-07T05:50:49;19.50;99.90
14031;DHT22;7090;49.436;8.490;2023-09-07T05:53:14;19.60;99.90
14031;DHT22;7090;49.436;8.490;2023-09-07T05:55:40;19.60;99.90
14031;DHT22;7090;49.436;8.490;2023-09-07T05:58:07;19.90;99.90
14031;DHT22;7090;49.436;8.490;2023-09-07T06:00:36;20.40;99.90
14031;DHT22;7090;49.436;8.490;2023-09-07T06:03:04;20.80;99.90
14031;DHT22;7090;49.436;8.490;2023-09-07T06:05:30;21.50;99.90
14031;DHT22;7090;49.436;8.490;2023-09-07T06:07:56;21.90;99.90
14031;DHT22;7090;49.436;8.490;2023-09-07T06:10:21;22.00;99.90
14031;DHT22;7090;49.436;8.490;2023-09-07T06:12:47;22.50;1.00
14031;DHT22;7090;49.436;8.490;2023-09-07T06:15:12;22.60;1.00
14031;DHT22;7090;49.436;8.490;2023-09-07T06:17:38;22.10;1.00
14031;DHT22;7090;49.436;8.490;2023-09-07T06:20:04;21.70;1.00
14031;DHT22;7090;49.436;8.490;2023-09-07T06:22:31;21.40;1.00
14031;DHT22;7090;49.436;8.490;2023-09-07T06:24:56;21.50;1.00
14031;DHT22;7090;49.436;8.490;2023-09-07T06:27:22;21.20;20.70
14031;DHT22;7090;49.436;8.490;2023-09-07T06:29:48;21.00;99.90
14031;DHT22;7090;49.436;8.490;2023-09-07T06:32:14;21.00;99.90
14031;DHT22;7090;49.436;8.490;2023-09-07T06:34:39;21.00;99.90
14031;DHT22;7090;49.436;8.490;2023-09-07T06:37:05;21.00;99.90
14031;DHT22;7090;49.436;8.490;2023-09-07T06:39:30;21.50;99.90
14031;DHT22;7090;49.436;8.490;2023-09-07T06:41:56;22.10;1.00
14031;DHT22;7090;49.436;8.490;2023-09-07T06:44:22;22.30;1.00
14031;DHT22;7090;49.436;8.490;2023-09-07T06:46:47;22.60;1.00
14031;DHT22;7090;49.436;8.490;2023-09-07T06:49:14;22.80;1.00
14031;DHT22;7090;49.436;8.490;2023-09-07T06:51:40;22.90;99.90
14031;DHT22;7090;49.436;8.490;2023-09-07T06:54:05;23.10;1.00
14031;DHT22;7090;49.436;8.490;2023-09-07T06:56:31;23.40;1.00
14031;DHT22;7090;49.436;8.490;2023-09-07T06:58:58;23.60;1.00
14031;DHT22;7090;49.436;8.490;2023-09-07T07:01:24;23.80;1.00
14031;DHT22;7090;49.436;8.490;2023-09-07T07:03:49;23.90;38.90
14031;DHT22;7090;49.436;8.490;2023-09-07T07:06:15;24.10;1.00
14031;DHT22;7090;49.436;8.490;2023-09-07T07:08:41;24.30;1.00
14031;DHT22;7090;49.436;8.490;2023-09-07T07:11:06;24.50;1.00
14031;DHT22;7090;49.436;8.490;2023-09-07T07:13:33;24.70;99.90
14031;DHT22;7090;49.436;8.490;2023-09-07T07:15:58;24.80;1.00
14031;DHT22;7090;49.436;8.490;2023-09-07T07:18:24;24.90;1.00
14031;DHT22;7090;49.436;8.490;2023-09-07T07:20:50;24.80;1.00
14031;DHT22;7090;49.436;8.490;2023-09-07T07:23:16;24.40;1.00
14031;DHT22;7090;49.436;8.490;2023-09-07T07:25:42;24.10;1.00
14031;DHT22;7090;49.436;8.490;2023-09-07T07:28:07;23.90;99.90
14031;DHT22;7090;49.436;8.490;2023-09-07T07:30:33;24.50;46.50
14031;DHT22;7090;49.436;8.490;2023-09-07T07:33:00;25.00;99.90
14031;DHT22;7090;49.436;8.490;2023-09-07T07:35:26;25.40;1.00
14031;DHT22;7090;49.436;8.490;2023-09-07T07:37:51;25.90;1.00
14031;DHT22;7090;49.436;8.490;2023-09-07T07:40:17;26.10;99.90
14031;DHT22;7090;49.436;8.490;2023-09-07T07:42:43;26.20;1.00
14031;DHT22;7090;49.436;8.490;2023-09-07T07:45:09;26.50;1.00
14031;DHT22;7090;49.436;8.490;2023-09-07T07:47:35;26.60;1.00
14031;DHT22;7090;49.436;8.490;2023-09-07T07:50:01;26.70;99.90
14031;DHT22;7090;49.436;8.490;2023-09-07T07:52:27;27.30;1.00
14031;DHT22;7090;49.436;8.490;2023-09-07T07:54:53;27.40;1.00
14031;DHT22;7090;49.436;8.490;2023-09-07T07:57:20;27.70;99.90
14031;DHT22;7090;49.436;8.490;2023-09-07T07:59:45;28.10;1.00
14031;DHT22;7090;49.436;8.490;2023-09-07T08:02:11;28.20;1.00
14031;DHT22;7090;49.436;8.490;2023-09-07T08:04:36;28.30;99.90
14031;DHT22;7090;49.436;8.490;2023-09-07T08:07:02;28.40;88.70
14031;DHT22;7090;49.436;8.490;2023-09-07T08:09:32;27.90;99.90
14031;DHT22;7090;49.436;8.490;2023-09-07T08:11:57;27.40;99.90
14031;DHT22;7090;49.436;8.490;2023-09-07T08:14:24;26.90;1.00
14031;DHT22;7090;49.436;8.490;2023-09-07T08:16:51;27.50;1.00
14031;DHT22;7090;49.436;8.490;2023-09-07T08:19:17;27.20;99.90
14031;DHT22;7090;49.436;8.490;2023-09-07T08:21:43;27.60;1.00
14031;DHT22;7090;49.436;8.490;2023-09-07T08:24:09;27.40;1.00
14031;DHT22;7090;49.436;8.490;2023-09-07T08:26:36;27.70;99.90
14031;DHT22;7090;49.436;8.490;2023-09-07T08:29:02;27.40;99.90
14031;DHT22;7090;49.436;8.490;2023-09-07T08:31:35;27.90;1.00
14031;DHT22;7090;49.436;8.490;2023-09-07T08:34:01;27.30;99.90
14031;DHT22;7090;49.436;8.490;2023-09-07T08:36:31;27.60;99.90
14031;DHT22;7090;49.436;8.490;2023-09-07T08:38:58;27.90;1.00
14031;DHT22;7090;49.436;8.490;2023-09-07T08:41:26;27.60;1.00
14031;DHT22;7090;49.436;8.490;2023-09-07T08:43:55;27.30;1.00
14031;DHT22;7090;49.436;8.490;2023-09-07T08:46:23;28.10;1.00
14031;DHT22;7090;49.436;8.490;2023-09-07T08:48:50;27.10;1.00
14031;DHT22;7090;49.436;8.490;2023-09-07T08:51:17;27.30;1.00
14031;DHT22;7090;49.436;8.490;2023-09-07T08:53:43;27.40;1.00
14031;DHT22;7090;49.436;8.490;2023-09-07T08:56:12;27.40;1.00
14031;DHT22;7090;49.436;8.490;2023-09-07T08:58:38;27.90;1.00
14031;DHT22;7090;49.436;8.490;2023-09-07T09:01:05;27.10;1.00
14031;DHT22;7090;49.436;8.490;2023-09-07T09:03:31;27.10;1.00
14031;DHT22;7090;49.436;8.490;2023-09-07T09:05:56;28.10;99.90
14031;DHT22;7090;49.436;8.490;2023-09-07T09:08:22;29.20;99.90
14031;DHT22;7090;49.436;8.490;2023-09-07T09:11:01;30.10;60.40
14031;DHT22;7090;49.436;8.490;2023-09-07T09:13:30;30.80;1.00
14031;DHT22;7090;49.436;8.490;2023-09-07T09:15:59;29.60;1.00
14031;DHT22;7090;49.436;8.490;2023-09-07T09:18:24;28.70;1.00
14031;DHT22;7090;49.436;8.490;2023-09-07T09:20:52;28.30;1.00
14031;DHT22;7090;49.436;8.490;2023-09-07T09:23:18;28.80;1.00
14031;DHT22;7090;49.436;8.490;2023-09-07T09:25:44;28.30;1.00
14031;DHT22;7090;49.436;8.490;2023-09-07T09:28:09;28.80;1.00
14031;DHT22;7090;49.436;8.490;2023-09-07T09:30:36;29.20;1.00
14031;DHT22;7090;49.436;8.490;2023-09-07T09:33:02;28.50;1.00
14031;DHT22;7090;49.436;8.490;2023-09-07T09:35:31;28.10;1.00
14031;DHT22;7090;49.436;8.490;2023-09-07T09:38:01;28.40;1.00
14031;DHT22;7090;49.436;8.490;2023-09-07T09:40:34;28.60;1.00
14031;DHT22;7090;49.436;8.490;2023-09-07T09:43:03;28.00;1.00
14031;DHT22;7090;49.436;8.490;2023-09-07T09:45:29;27.70;1.00
14031;DHT22;7090;49.436;8.490;2023-09-07T09:47:55;27.60;1.00
14031;DHT22;7090;49.436;8.490;2023-09-07T09:50:22;27.20;1.00
14031;DHT22;7090;49.436;8.490;2023-09-07T09:52:48;27.90;1.00
14031;DHT22;7090;49.436;8.490;2023-09-07T09:55:14;28.80;1.00
14031;DHT22;7090;49.436;8.490;2023-09-07T09:57:40;28.40;99.90
14031;DHT22;7090;49.436;8.490;2023-09-07T10:00:07;28.60;1.00
14031;DHT22;7090;49.436;8.490;2023-09-07T10:03:08;29.50;99.90
14031;DHT22;7090;49.436;8.490;2023-09-07T10:05:38;29.20;99.90
14031;DHT22;7090;49.436;8.490;2023-09-07T10:08:09;30.40;99.90
14031;DHT22;7090;49.436;8.490;2023-09-07T10:10:36;31.30;99.90
14031;DHT22;7090;49.436;8.490;2023-09-07T10:13:02;31.80;99.90
14031;DHT22;7090;49.436;8.490;2023-09-07T10:15:29;32.50;99.90
14031;DHT22;7090;49.436;8.490;2023-09-07T10:18:10;33.30;99.90
14031;DHT22;7090;49.436;8.490;2023-09-07T10:20:58;33.60;29.30
14031;DHT22;7090;49.436;8.490;2023-09-07T10:23:41;31.50;1.00
14031;DHT22;7090;49.436;8.490;2023-09-07T10:26:15;29.90;1.00
14031;DHT22;7090;49.436;8.490;2023-09-07T10:28:41;30.60;2.80
14031;DHT22;7090;49.436;8.490;2023-09-07T10:31:12;31.00;1.00
14031;DHT22;7090;49.436;8.490;2023-09-07T10:33:39;31.30;1.00
14031;DHT22;7090;49.436;8.490;2023-09-07T10:36:05;31.70;1.00
14031;DHT22;7090;49.436;8.490;2023-09-07T10:38:35;31.80;1.00
14031;DHT22;7090;49.436;8.490;2023-09-07T10:41:03;32.00;1.00
14031;DHT22;7090;49.436;8.490;2023-09-07T10:43:30;32.70;1.00
14031;DHT22;7090;49.436;8.490;2023-09-07T10:45:57;32.50;1.00
14031;DHT22;7090;49.436;8.490;2023-09-07T10:48:24;31.70;1.00
14031;DHT22;7090;49.436;8.490;2023-09-07T10:50:51;31.30;1.00
14031;DHT22;7090;49.436;8.490;2023-09-07T10:53:27;32.90;1.00
14031;DHT22;7090;49.436;8.490;2023-09-07T10:55:54;33.40;1.00
14031;DHT22;7090;49.436;8.490;2023-09-07T10:58:29;33.20;1.00
14031;DHT22;7090;49.436;8.490;2023-09-07T11:00:55;33.70;1.00
14031;DHT22;7090;49.436;8.490;2023-09-07T11:03:21;34.40;1.00
14031;DHT22;7090;49.436;8.490;2023-09-07T11:05:48;32.80;1.00
14031;DHT22;7090;49.436;8.490;2023-09-07T11:08:14;32.20;1.00
14031;DHT22;7090;49.436;8.490;2023-09-07T11:10:40;32.50;1.00
14031;DHT22;7090;49.436;8.490;2023-09-07T11:13:06;31.60;1.00
14031;DHT22;7090;49.436;8.490;2023-09-07T11:15:33;30.30;1.00
14031;DHT22;7090;49.436;8.490;2023-09-07T11:18:05;29.60;1.00
14031;DHT22;7090;49.436;8.490;2023-09-07T11:20:38;29.80;1.00
14031;DHT22;7090;49.436;8.490;2023-09-07T11:23:05;30.40;1.00
14031;DHT22;7090;49.436;8.490;2023-09-07T11:25:38;31.40;1.00
14031;DHT22;7090;49.436;8.490;2023-09-07T11:28:05;31.00;1.00
14031;DHT22;7090;49.436;8.490;2023-09-07T11:30:31;31.20;1.00
14031;DHT22;7090;49.436;8.490;2023-09-07T11:33:01;30.40;1.00
14031;DHT22;7090;49.436;8.490;2023-09-07T11:35:27;29.50;1.00
14031;DHT22;7090;49.436;8.490;2023-09-07T11:37:53;29.50;1.00
14031;DHT22;7090;49.436;8.490;2023-09-07T11:40:19;29.20;1.00
14031;DHT22;7090;49.436;8.490;2023-09-07T11:42:44;29.70;1.00
14031;DHT22;7090;49.436;8.490;2023-09-07T11:45:10;30.90;1.00
14031;DHT22;7090;49.436;8.490;2023-09-07T11:47:38;31.20;1.00
14031;DHT22;7090;49.436;8.490;2023-09-07T11:50:05;31.30;1.00
14031;DHT22;7090;49.436;8.490;2023-09-07T11:52:32;31.30;1.00
14031;DHT22;7090;49.436;8.490;2023-09-07T11:54:57;32.10;1.00
14031;DHT22;7090;49.436;8.490;2023-09-07T11:57:23;32.00;1.00
14031;DHT22;7090;49.436;8.490;2023-09-07T11:59:49;32.50;1.00
14031;DHT22;7090;49.436;8.490;2023-09-07T12:02:14;33.40;1.00
14031;DHT22;7090;49.436;8.490;2023-09-07T12:04:41;33.70;1.00
14031;DHT22;7090;49.436;8.490;2023-09-07T12:07:07;34.40;1.00
14031;DHT22;7090;49.436;8.490;2023-09-07T12:09:32;34.50;1.00
14031;DHT22;7090;49.436;8.490;2023-09-07T12:11:58;34.20;1.00
14031;DHT22;7090;49.436;8.490;2023-09-07T12:14:24;33.40;1.00
14031;DHT22;7090;49.436;8.490;2023-09-07T12:16:49;32.60;1.00
14031;DHT22;7090;49.436;8.490;2023-09-07T12:19:15;32.40;1.00
14031;DHT22;7090;49.436;8.490;2023-09-07T12:21:40;33.50;1.00
14031;DHT22;7090;49.436;8.490;2023-09-07T12:24:07;33.50;1.00
14031;DHT22;7090;49.436;8.490;2023-09-07T12:26:33;33.50;1.00
14031;DHT22;7090;49.436;8.490;2023-09-07T12:28:59;31.60;1.00
14031;DHT22;7090;49.436;8.490;2023-09-07T12:31:25;32.10;1.00
14031;DHT22;7090;49.436;8.490;2023-09-07T12:33:50;32.20;1.00
14031;DHT22;7090;49.436;8.490;2023-09-07T12:36:17;31.80;1.00
14031;DHT22;7090;49.436;8.490;2023-09-07T12:38:43;31.70;1.00
14031;DHT22;7090;49.436;8.490;2023-09-07T12:41:08;30.90;1.00
14031;DHT22;7090;49.436;8.490;2023-09-07T12:43:34;31.00;1.00
14031;DHT22;7090;49.436;8.490;2023-09-07T12:45:59;31.40;1.00
14031;DHT22;7090;49.436;8.490;2023-09-07T12:48:25;31.20;1.00
14031;DHT22;7090;49.436;8.490;2023-09-07T12:50:51;31.60;1.00
14031;DHT22;7090;49.436;8.490;2023-09-07T12:53:16;32.10;1.00
14031;DHT22;7090;49.436;8.490;2023-09-07T12:55:42;31.80;1.00
14031;DHT22;7090;49.436;8.490;2023-09-07T12:58:08;31.60;1.00
14031;DHT22;7090;49.436;8.490;2023-09-07T13:00:33;31.40;1.00
14031;DHT22;7090;49.436;8.490;2023-09-07T13:02:59;31.70;1.00
14031;DHT22;7090;49.436;8.490;2023-09-07T13:05:24;31.40;1.00
14031;DHT22;7090;49.436;8.490;2023-09-07T13:07:50;31.50;1.00
14031;DHT22;7090;49.436;8.490;2023-09-07T13:10:16;31.80;1.00
14031;DHT22;7090;49.436;8.490;2023-09-07T13:12:42;32.10;1.00
14031;DHT22;7090;49.436;8.490;2023-09-07T13:15:08;32.20;1.00
14031;DHT22;7090;49.436;8.490;2023-09-07T13:17:33;31.60;1.00
14031;DHT22;7090;49.436;8.490;2023-09-07T13:19:59;31.40;1.00
14031;DHT22;7090;49.436;8.490;2023-09-07T13:22:25;32.20;1.00
14031;DHT22;7090;49.436;8.490;2023-09-07T13:24:50;33.70;1.00
14031;DHT22;7090;49.436;8.490;2023-09-07T13:27:16;34.20;1.00
14031;DHT22;7090;49.436;8.490;2023-09-07T13:29:42;33.70;1.00
14031;DHT22;7090;49.436;8.490;2023-09-07T13:32:08;32.90;1.00
14031;DHT22;7090;49.436;8.490;2023-09-07T13:34:33;33.60;1.00
14031;DHT22;7090;49.436;8.490;2023-09-07T13:36:59;33.40;1.00
14031;DHT22;7090;49.436;8.490;2023-09-07T13:39:25;32.60;1.00
14031;DHT22;7090;49.436;8.490;2023-09-07T13:41:50;32.70;1.00
14031;DHT22;7090;49.436;8.490;2023-09-07T13:44:16;31.60;1.00
14031;DHT22;7090;49.436;8.490;2023-09-07T13:46:43;32.30;1.00
14031;DHT22;7090;49.436;8.490;2023-09-07T13:49:09;33.00;1.00
14031;DHT22;7090;49.436;8.490;2023-09-07T13:51:35;33.20;1.00
14031;DHT22;7090;49.436;8.490;2023-09-07T13:54:10;32.60;1.00
14031;DHT22;7090;49.436;8.490;2023-09-07T13:56:36;31.80;1.00
14031;DHT22;7090;49.436;8.490;2023-09-07T13:59:02;31.50;1.00
14031;DHT22;7090;49.436;8.490;2023-09-07T14:01:27;31.60;1.00
14031;DHT22;7090;49.436;8.490;2023-09-07T14:03:53;32.30;1.00
14031;DHT22;7090;49.436;8.490;2023-09-07T14:06:19;32.50;1.00
14031;DHT22;7090;49.436;8.490;2023-09-07T14:08:47;32.60;1.00
14031;DHT22;7090;49.436;8.490;2023-09-07T14:11:14;32.90;1.00
14031;DHT22;7090;49.436;8.490;2023-09-07T14:13:39;32.20;1.00
14031;DHT22;7090;49.436;8.490;2023-09-07T14:16:05;32.80;1.00
14031;DHT22;7090;49.436;8.490;2023-09-07T14:18:31;32.80;1.00
14031;DHT22;7090;49.436;8.490;2023-09-07T14:20:56;31.80;1.00
14031;DHT22;7090;49.436;8.490;2023-09-07T14:23:24;31.20;1.00
14031;DHT22;7090;49.436;8.490;2023-09-07T14:25:51;32.10;1.00
14031;DHT22;7090;49.436;8.490;2023-09-07T14:28:17;32.70;1.00
14031;DHT22;7090;49.436;8.490;2023-09-07T14:30:42;32.50;1.00
14031;DHT22;7090;49.436;8.490;2023-09-07T14:33:08;32.70;1.00
14031;DHT22;7090;49.436;8.490;2023-09-07T14:35:34;33.10;1.00
14031;DHT22;7090;49.436;8.490;2023-09-07T14:38:00;32.50;1.00
14031;DHT22;7090;49.436;8.490;2023-09-07T14:40:26;32.40;1.00
14031;DHT22;7090;49.436;8.490;2023-09-07T14:42:51;31.80;1.00
14031;DHT22;7090;49.436;8.490;2023-09-07T14:45:18;31.80;1.00
14031;DHT22;7090;49.436;8.490;2023-09-07T14:47:44;32.40;1.00
14031;DHT22;7090;49.436;8.490;2023-09-07T14:50:10;32.00;1.00
14031;DHT22;7090;49.436;8.490;2023-09-07T14:52:35;32.50;1.00
14031;DHT22;7090;49.436;8.490;2023-09-07T14:55:06;32.80;1.00
14031;DHT22;7090;49.436;8.490;2023-09-07T14:57:33;32.30;1.00
14031;DHT22;7090;49.436;8.490;2023-09-07T14:59:59;32.40;1.00
14031;DHT22;7090;49.436;8.490;2023-09-07T15:02:25;31.80;1.00
14031;DHT22;7090;49.436;8.490;2023-09-07T15:04:51;32.00;1.00
14031;DHT22;7090;49.436;8.490;2023-09-07T15:07:17;32.60;1.00
14031;DHT22;7090;49.436;8.490;2023-09-07T15:09:44;32.70;1.00
14031;DHT22;7090;49.436;8.490;2023-09-07T15:12:09;32.90;1.00
14031;DHT22;7090;49.436;8.490;2023-09-07T15:14:36;32.30;1.00
14031;DHT22;7090;49.436;8.490;2023-09-07T15:17:02;32.60;1.00
14031;DHT22;7090;49.436;8.490;2023-09-07T15:19:28;33.20;1.00
14031;DHT22;7090;49.436;8.490;2023-09-07T15:21:53;33.40;1.00
14031;DHT22;7090;49.436;8.490;2023-09-07T15:24:19;33.50;1.00
14031;DHT22;7090;49.436;8.490;2023-09-07T15:26:45;33.20;1.00
14031;DHT22;7090;49.436;8.490;2023-09-07T15:29:11;32.50;1.00
14031;DHT22;7090;49.436;8.490;2023-09-07T15:31:38;31.80;1.00
14031;DHT22;7090;49.436;8.490;2023-09-07T15:34:03;31.90;1.00
14031;DHT22;7090;49.436;8.490;2023-09-07T15:36:30;31.70;1.00
14031;DHT22;7090;49.436;8.490;2023-09-07T15:38:56;31.70;1.00
14031;DHT22;7090;49.436;8.490;2023-09-07T15:41:21;31.60;1.00
14031;DHT22;7090;49.436;8.490;2023-09-07T15:43:47;32.00;1.00
14031;DHT22;7090;49.436;8.490;2023-09-07T15:46:13;32.20;1.00
14031;DHT22;7090;49.436;8.490;2023-09-07T15:48:38;31.70;1.00
14031;DHT22;7090;49.436;8.490;2023-09-07T15:51:05;31.70;1.00